createdAt,value
2023-04-11T00:00:35.011Z,19.04
2023-04-11T00:03:04.499Z,18.91
2023-04-11T00:05:31.457Z,19.11
2023-04-11T00:07:58.009Z,19.03
2023-04-11T00:10:24.906Z,18.90
2023-04-11T00:12:52.966Z,18.92
2023-04-11T00:15:19.941Z,18.54
2023-04-11T00:17:46.461Z,18.99
2023-04-11T00:20:13.055Z,19.17
2023-04-11T00:22:39.643Z,19.08
2023-04-11T00:25:07.114Z,19.00
2023-04-11T00:27:33.684Z,18.86
2023-04-11T00:30:00.821Z,18.89
2023-04-11T00:32:27.539Z,18.94
2023-04-11T00:34:54.097Z,18.87
2023-04-11T00:37:23.430Z,18.94
2023-04-11T00:39:56.119Z,19.10
2023-04-11T00:42:22.705Z,18.99
2023-04-11T00:44:49.551Z,19.02
2023-04-11T00:47:16.282Z,18.85
2023-04-11T00:49:42.945Z,18.75
2023-04-11T00:52:09.472Z,18.66
2023-04-11T00:54:35.966Z,18.72
2023-04-11T00:57:04.154Z,18.60
2023-04-11T00:59:31.659Z,18.56
2023-04-11T01:01:58.992Z,18.90
2023-04-11T01:04:26.219Z,18.76
2023-04-11T01:06:59.082Z,18.93
2023-04-11T01:09:27.250Z,18.98
2023-04-11T01:11:54.462Z,18.73
2023-04-11T01:14:21.797Z,18.86
2023-04-11T01:16:50.740Z,18.66
2023-04-11T01:19:21.473Z,18.87
2023-04-11T01:21:48.680Z,18.96
2023-04-11T01:24:15.470Z,18.68
2023-04-11T01:26:42.249Z,18.77
2023-04-11T01:29:08.964Z,18.64
2023-04-11T01:31:35.569Z,18.84
2023-04-11T01:34:02.650Z,18.76
2023-04-11T01:36:30.169Z,18.89
2023-04-11T01:38:56.869Z,18.84
2023-04-11T01:41:26.942Z,18.88
2023-04-11T01:43:54.161Z,18.78
2023-04-11T01:46:21.748Z,18.90
2023-04-11T01:48:50.506Z,18.82
2023-04-11T01:51:17.205Z,18.84
2023-04-11T01:53:47.278Z,18.67
2023-04-11T01:56:14.685Z,18.65
2023-04-11T01:58:41.378Z,18.63
2023-04-11T02:01:08.061Z,18.57
2023-04-11T02:03:34.799Z,18.59
2023-04-11T02:06:01.663Z,18.42
2023-04-11T02:08:29.369Z,18.57
2023-04-11T02:10:55.985Z,18.68
2023-04-11T02:13:23.264Z,18.66
2023-04-11T02:15:49.879Z,18.73
2023-04-11T02:18:17.689Z,18.63
2023-04-11T02:20:44.253Z,18.39
2023-04-11T02:23:11.024Z,18.35
2023-04-11T02:25:39.325Z,18.48
2023-04-11T02:28:08.115Z,18.55
2023-04-11T02:30:34.949Z,18.43
2023-04-11T02:33:01.710Z,18.26
2023-04-11T02:35:28.457Z,18.35
2023-04-11T02:37:54.979Z,18.13
2023-04-11T02:40:23.108Z,18.45
2023-04-11T02:42:49.709Z,18.20
2023-04-11T02:45:17.336Z,18.38
2023-04-11T02:47:43.964Z,18.09
2023-04-11T02:50:11.228Z,18.13
2023-04-11T02:52:45.404Z,18.35
2023-04-11T02:55:13.848Z,18.13
2023-04-11T02:57:40.363Z,18.22
2023-04-11T03:00:11.086Z,18.40
2023-04-11T03:02:45.998Z,18.40
2023-04-11T03:05:12.869Z,18.30
2023-04-11T03:07:40.818Z,18.51
2023-04-11T03:10:09.231Z,18.37
2023-04-11T03:12:35.899Z,18.54
2023-04-11T03:15:04.696Z,18.55
2023-04-11T03:17:32.053Z,18.50
2023-04-11T03:19:59.143Z,18.59
2023-04-11T03:22:26.005Z,18.53
2023-04-11T03:24:52.554Z,18.51
2023-04-11T03:27:22.075Z,18.48
2023-04-11T03:29:53.584Z,18.50
2023-04-11T03:32:27.468Z,18.63
2023-04-11T03:34:54.148Z,18.73
2023-04-11T03:37:22.074Z,18.51
2023-04-11T03:39:48.586Z,18.39
2023-04-11T03:42:16.111Z,18.47
2023-04-11T03:44:42.722Z,18.73
2023-04-11T03:47:09.929Z,18.59
2023-04-11T03:49:41.244Z,18.59
2023-04-11T03:52:09.779Z,18.60
2023-04-11T03:54:37.654Z,18.66
2023-04-11T03:57:06.368Z,18.80
2023-04-11T03:59:34.427Z,18.63
2023-04-11T04:02:06.038Z,18.45
2023-04-11T04:04:34.648Z,18.63
2023-04-11T04:07:10.540Z,18.65
2023-04-11T04:09:41.555Z,18.65
2023-04-11T04:12:08.790Z,18.31
2023-04-11T04:14:55.347Z,18.02
2023-04-11T04:17:22.060Z,17.96
2023-04-11T04:19:48.698Z,17.51
2023-04-11T04:22:17.669Z,17.15
2023-04-11T04:24:50.342Z,17.04
2023-04-11T04:27:21.206Z,16.56
2023-04-11T04:29:52.274Z,16.30
2023-04-11T04:32:28.874Z,18.56
2023-04-11T04:34:59.352Z,28.32
2023-04-11T04:37:29.247Z,22.54
2023-04-11T04:40:09.117Z,22.01
2023-04-11T04:42:44.415Z,21.79
2023-04-11T04:45:11.533Z,21.01
2023-04-11T04:47:38.714Z,21.27
2023-04-11T04:50:06.354Z,21.23
2023-04-11T04:52:32.934Z,20.95
2023-04-11T04:54:59.819Z,21.09
2023-04-11T04:57:31.906Z,20.82
2023-04-11T04:59:58.748Z,21.02
2023-04-11T05:02:26.675Z,20.96
2023-04-11T05:04:55.423Z,21.49
2023-04-11T05:07:23.522Z,21.42
2023-04-11T05:09:51.937Z,21.42
2023-04-11T05:12:26.924Z,21.74
2023-04-11T05:14:57.848Z,21.67
2023-04-11T05:17:29.813Z,21.96
2023-04-11T05:19:56.906Z,22.00
2023-04-11T05:22:24.246Z,22.07
2023-04-11T05:24:54.213Z,22.16
2023-04-11T05:27:21.011Z,22.23
2023-04-11T05:29:47.798Z,22.05
2023-04-11T05:32:16.570Z,21.97
2023-04-11T05:34:59.063Z,21.74
2023-04-11T05:37:38.027Z,21.59
2023-04-11T05:40:05.944Z,21.55
2023-04-11T05:42:32.560Z,21.46
2023-04-11T05:44:59.331Z,21.82
2023-04-11T05:47:26.087Z,21.67
2023-04-11T05:49:52.651Z,21.61
2023-04-11T05:52:19.508Z,21.73
2023-04-11T05:54:46.031Z,21.43
2023-04-11T05:57:12.558Z,21.40
2023-04-11T05:59:39.093Z,21.44
2023-04-11T06:02:06.339Z,21.57
2023-04-11T06:04:33.259Z,21.82
2023-04-11T06:07:00.047Z,21.77
2023-04-11T06:09:26.799Z,21.84
2023-04-11T06:11:53.520Z,21.93
2023-04-11T06:14:20.061Z,22.13
2023-04-11T06:16:46.589Z,22.38
2023-04-11T06:19:18.984Z,22.56
2023-04-11T06:21:45.720Z,22.95
2023-04-11T06:24:27.080Z,22.73
2023-04-11T06:26:53.795Z,22.82
2023-04-11T06:29:20.395Z,22.65
2023-04-11T06:31:47.165Z,22.73
2023-04-11T06:34:13.771Z,22.74
2023-04-11T06:36:42.732Z,22.91
2023-04-11T06:39:09.885Z,22.77
2023-04-11T06:41:36.406Z,22.86
2023-04-11T06:44:02.916Z,23.03
2023-04-11T06:46:29.556Z,22.82
2023-04-11T06:48:56.268Z,22.86
2023-04-11T06:51:22.798Z,22.93
2023-04-11T06:53:49.351Z,23.07
2023-04-11T06:56:15.934Z,23.18
2023-04-11T06:58:43.045Z,23.21
2023-04-11T07:01:10.051Z,23.27
2023-04-11T07:03:37.064Z,23.18
2023-04-11T07:06:03.870Z,23.35
2023-04-11T07:08:30.667Z,23.59
2023-04-11T07:10:57.215Z,23.65
2023-04-11T07:13:23.776Z,23.64
2023-04-11T07:15:50.328Z,23.76
2023-04-11T07:18:16.956Z,23.64
2023-04-11T07:20:43.473Z,23.67
2023-04-11T07:23:10.130Z,23.92
2023-04-11T07:25:36.887Z,23.88
2023-04-11T07:28:07.182Z,23.85
2023-04-11T07:30:35.595Z,23.93
2023-04-11T07:33:03.185Z,23.85
2023-04-11T07:35:31.465Z,24.12
2023-04-11T07:37:58.313Z,24.08
2023-04-11T07:40:24.943Z,24.20
2023-04-11T07:42:51.427Z,24.18
2023-04-11T07:45:18.045Z,24.25
2023-04-11T07:47:44.942Z,24.36
2023-04-11T07:50:11.639Z,24.26
2023-04-11T07:52:38.321Z,24.36
2023-04-11T07:55:05.309Z,24.52
2023-04-11T07:57:31.859Z,24.58
2023-04-11T08:00:01.822Z,24.68
2023-04-11T08:02:38.788Z,24.58
2023-04-11T08:05:08.638Z,24.67
2023-04-11T08:07:35.266Z,24.82
2023-04-11T08:10:01.820Z,24.95
2023-04-11T08:12:28.573Z,25.08
2023-04-11T08:14:55.134Z,25.00
2023-04-11T08:17:28.563Z,25.17
2023-04-11T08:19:55.831Z,24.59
2023-04-11T08:22:22.544Z,24.77
2023-04-11T08:24:49.033Z,24.74
2023-04-11T08:27:15.584Z,24.82
2023-04-11T08:29:42.135Z,24.90
2023-04-11T08:32:08.715Z,24.90
2023-04-11T08:34:35.475Z,24.93
2023-04-11T08:37:02.068Z,24.88
2023-04-11T08:39:28.558Z,24.97
2023-04-11T08:41:55.948Z,24.99
2023-04-11T08:44:22.497Z,25.06
2023-04-11T08:46:49.219Z,25.04
2023-04-11T08:49:15.996Z,25.12
2023-04-11T08:51:44.121Z,25.20
2023-04-11T08:54:10.893Z,25.29
2023-04-11T08:56:41.904Z,25.50
2023-04-11T08:59:08.412Z,25.39
2023-04-11T09:01:37.184Z,25.48
2023-04-11T09:04:11.199Z,25.55
2023-04-11T09:06:39.226Z,25.71
2023-04-11T09:09:06.522Z,25.90
2023-04-11T09:11:55.374Z,26.59
2023-04-11T09:14:25.744Z,26.33
2023-04-11T09:16:58.587Z,26.65
2023-04-11T09:19:26.719Z,26.62
2023-04-11T09:21:54.899Z,26.74
2023-04-11T09:24:22.227Z,26.91
2023-04-11T09:26:48.856Z,27.15
2023-04-11T09:29:41.152Z,28.00
2023-04-11T09:32:08.101Z,27.89
2023-04-11T09:34:37.640Z,28.17
2023-04-11T09:37:04.476Z,28.33
2023-04-11T09:39:32.491Z,28.16
2023-04-11T09:41:59.120Z,28.04
2023-04-11T09:44:38.488Z,28.55
2023-04-11T09:47:05.276Z,28.30
2023-04-11T09:49:32.923Z,28.37
2023-04-11T09:51:59.548Z,28.64
2023-04-11T09:54:27.687Z,28.98
2023-04-11T09:56:54.329Z,29.16
2023-04-11T09:59:21.457Z,29.40
2023-04-11T10:01:49.222Z,29.65
2023-04-11T10:04:16.413Z,29.91
2023-04-11T10:07:02.170Z,30.59
2023-04-11T10:09:29.501Z,30.57
2023-04-11T10:11:56.099Z,30.75
2023-04-11T10:14:37.500Z,31.43
2023-04-11T10:17:11.860Z,31.94
2023-04-11T10:19:38.363Z,32.10
2023-04-11T10:22:04.886Z,32.05
2023-04-11T10:24:31.391Z,31.94
2023-04-11T10:27:04.363Z,32.56
2023-04-11T10:29:33.649Z,32.64
2023-04-11T10:32:15.786Z,33.08
2023-04-11T10:34:54.382Z,32.75
2023-04-11T10:37:30.374Z,31.92
2023-04-11T10:40:26.542Z,31.37
2023-04-11T10:42:53.138Z,30.95
2023-04-11T10:45:29.806Z,31.08
2023-04-11T10:47:56.568Z,30.25
2023-04-11T10:50:26.282Z,30.02
2023-04-11T10:52:57.044Z,29.27
2023-04-11T10:55:24.841Z,29.34
2023-04-11T10:58:07.419Z,29.43
2023-04-11T11:00:52.877Z,29.02
2023-04-11T11:03:24.195Z,29.33
2023-04-11T11:06:05.535Z,30.39
2023-04-11T11:08:38.176Z,31.03
2023-04-11T11:11:09.180Z,31.73
2023-04-11T11:13:38.241Z,33.64
2023-04-11T11:16:05.034Z,32.69
2023-04-11T11:18:31.667Z,32.63
2023-04-11T11:20:58.156Z,32.26
2023-04-11T11:23:24.736Z,32.69
2023-04-11T11:25:55.407Z,33.11
2023-04-11T11:28:22.155Z,33.25
2023-04-11T11:30:55.005Z,33.94
2023-04-11T11:33:24.994Z,33.33
2023-04-11T11:36:00.597Z,33.65
2023-04-11T11:38:30.949Z,33.96
2023-04-11T11:40:58.341Z,34.08
2023-04-11T11:43:27.473Z,34.08
2023-04-11T11:46:14.603Z,33.12
2023-04-11T11:48:42.775Z,33.17
2023-04-11T11:51:09.520Z,32.91
2023-04-11T11:53:36.570Z,33.15
2023-04-11T11:56:12.563Z,33.73
2023-04-11T11:58:44.016Z,33.48
2023-04-11T12:03:40.891Z,33.22
2023-04-11T12:06:10.514Z,33.07
2023-04-11T12:08:41.554Z,32.99
2023-04-11T12:11:12.440Z,33.17
2023-04-11T12:13:38.941Z,34.69
2023-04-11T12:16:06.050Z,32.91
2023-04-11T12:18:32.777Z,32.67
2023-04-11T12:20:59.870Z,32.91
2023-04-11T12:23:26.444Z,33.29
2023-04-11T12:25:53.201Z,33.02
2023-04-11T12:28:19.731Z,32.83
2023-04-11T12:30:46.377Z,32.68
2023-04-11T12:33:12.900Z,33.03
2023-04-11T12:35:39.639Z,33.24
2023-04-11T12:38:07.769Z,33.14
2023-04-11T12:40:34.449Z,33.83
2023-04-11T12:43:01.002Z,34.53
2023-04-11T12:45:27.507Z,34.83
2023-04-11T12:47:54.405Z,34.70
2023-04-11T12:50:24.188Z,35.05
2023-04-11T12:52:51.448Z,34.82
2023-04-11T12:55:18.129Z,34.54
2023-04-11T12:57:44.773Z,33.92
2023-04-11T13:00:12.887Z,33.09
2023-04-11T13:02:44.380Z,32.00
2023-04-11T13:05:14.435Z,30.62
2023-04-11T13:07:44.139Z,30.55
2023-04-11T13:10:11.115Z,30.25
2023-04-11T13:12:41.697Z,29.20
2023-04-11T13:15:09.904Z,29.34
2023-04-11T13:17:36.994Z,28.69
2023-04-11T13:20:08.496Z,28.11
2023-04-11T13:22:36.863Z,27.61
2023-04-11T13:25:03.556Z,27.30
2023-04-11T13:27:30.387Z,26.95
2023-04-11T13:29:56.918Z,26.89
2023-04-11T13:32:23.571Z,26.89
2023-04-11T13:34:50.529Z,26.86
2023-04-11T13:37:17.138Z,26.63
2023-04-11T13:39:43.690Z,26.66
2023-04-11T13:42:10.735Z,26.64
2023-04-11T13:44:37.384Z,26.48
2023-04-11T13:47:04.201Z,26.40
2023-04-11T13:49:30.858Z,26.16
2023-04-11T13:51:57.519Z,26.34
2023-04-11T13:54:24.135Z,25.67
2023-04-11T13:56:51.204Z,25.12
2023-04-11T13:59:18.030Z,24.58
2023-04-11T14:01:44.804Z,24.37
2023-04-11T14:04:11.991Z,24.15
2023-04-11T14:06:39.584Z,24.56
2023-04-11T14:09:06.538Z,24.77
2023-04-11T14:11:33.458Z,24.58
2023-04-11T14:14:00.022Z,24.77
2023-04-11T14:16:26.750Z,24.41
2023-04-11T14:18:53.461Z,24.08
2023-04-11T14:21:20.395Z,24.31
2023-04-11T14:23:47.155Z,24.68
2023-04-11T14:26:13.705Z,24.64
2023-04-11T14:28:40.321Z,24.64
2023-04-11T14:31:14.178Z,24.78
2023-04-11T14:33:40.837Z,25.06
2023-04-11T14:36:07.883Z,25.18
2023-04-11T14:38:34.430Z,25.30
2023-04-11T14:41:01.500Z,25.40
2023-04-11T14:43:28.408Z,25.57
2023-04-11T14:45:56.843Z,25.78
2023-04-11T14:48:26.086Z,26.00
2023-04-11T14:50:52.879Z,25.97
2023-04-11T14:53:24.250Z,26.09
2023-04-11T14:55:53.002Z,26.23
2023-04-11T14:58:20.624Z,26.40
2023-04-11T15:00:47.188Z,26.49
2023-04-11T15:03:14.143Z,26.72
2023-04-11T15:05:40.810Z,26.88
2023-04-11T15:08:08.713Z,27.00
2023-04-11T15:10:35.552Z,27.07
2023-04-11T15:13:02.236Z,27.19
2023-04-11T15:15:29.449Z,26.90
2023-04-11T15:18:19.146Z,27.48
2023-04-11T15:20:45.918Z,27.12
2023-04-11T15:23:12.459Z,27.03
2023-04-11T15:25:39.239Z,27.04
2023-04-11T15:28:05.836Z,27.10
2023-04-11T15:30:32.863Z,27.15
2023-04-11T15:32:59.882Z,27.10
2023-04-11T15:35:26.611Z,27.05
2023-04-11T15:37:53.575Z,27.13
2023-04-11T15:40:24.690Z,27.13
2023-04-11T15:42:51.755Z,28.88
2023-04-11T15:45:18.412Z,27.63
2023-04-11T15:47:45.177Z,27.41
2023-04-11T15:50:12.221Z,27.31
2023-04-11T15:52:38.720Z,27.34
2023-04-11T15:55:05.673Z,27.31
2023-04-11T15:57:33.013Z,27.31
2023-04-11T15:59:59.617Z,27.27
2023-04-11T16:02:26.322Z,27.25
2023-04-11T16:04:54.194Z,27.25
2023-04-11T16:07:23.280Z,27.15
2023-04-11T16:09:50.132Z,26.92
2023-04-11T16:12:16.704Z,26.96
2023-04-11T16:14:45.803Z,27.01
2023-04-11T16:17:12.679Z,26.99
2023-04-11T16:19:39.211Z,27.08
2023-04-11T16:22:05.870Z,27.02
2023-04-11T16:24:32.432Z,26.90
2023-04-11T16:26:58.924Z,26.95
2023-04-11T16:29:25.532Z,26.90
2023-04-11T16:31:52.066Z,26.88
2023-04-11T16:34:18.686Z,26.74
2023-04-11T16:36:45.309Z,26.94
2023-04-11T16:39:11.856Z,26.99
2023-04-11T16:41:38.404Z,26.80
2023-04-11T16:44:06.041Z,26.74
2023-04-11T16:46:32.689Z,26.83
2023-04-11T16:48:59.369Z,26.76
2023-04-11T16:51:26.262Z,26.66
2023-04-11T16:53:53.302Z,26.82
2023-04-11T16:56:20.113Z,26.93
2023-04-11T16:58:46.675Z,26.95
2023-04-11T17:01:13.598Z,26.90
2023-04-11T17:03:42.017Z,26.84
2023-04-11T17:06:14.508Z,26.90
2023-04-11T17:08:41.884Z,26.54
2023-04-11T17:11:10.545Z,26.51
2023-04-11T17:13:37.943Z,26.46
2023-04-11T17:16:05.274Z,26.51
2023-04-11T17:18:31.941Z,26.26
2023-04-11T17:20:59.170Z,26.48
2023-04-11T17:23:38.878Z,26.65
2023-04-11T17:26:08.286Z,26.55
2023-04-11T17:28:35.448Z,26.43
2023-04-11T17:31:06.946Z,26.35
2023-04-11T17:33:33.565Z,26.33
2023-04-11T17:36:00.676Z,26.28
2023-04-11T17:38:27.253Z,26.10
2023-04-11T17:41:00.144Z,26.32
2023-04-11T17:43:30.030Z,26.28
2023-04-11T17:45:56.699Z,26.17
2023-04-11T17:48:24.119Z,26.09
2023-04-11T17:50:51.072Z,26.27
2023-04-11T17:53:18.270Z,26.21
2023-04-11T17:55:48.699Z,26.37
2023-04-11T17:58:16.258Z,26.31
2023-04-11T18:00:52.936Z,26.18
2023-04-11T18:03:22.996Z,26.23
2023-04-11T18:05:51.221Z,26.09
2023-04-11T18:08:18.918Z,26.07
2023-04-11T18:10:46.450Z,26.02
2023-04-11T18:13:13.626Z,26.07
2023-04-11T18:15:40.392Z,26.10
2023-04-11T18:18:09.837Z,26.05
2023-04-11T18:20:38.985Z,26.02
2023-04-11T18:23:06.537Z,25.81
2023-04-11T18:25:33.371Z,25.96
2023-04-11T18:28:04.171Z,26.01
2023-04-11T18:30:30.861Z,26.11
2023-04-11T18:32:57.679Z,26.00
2023-04-11T18:35:24.447Z,26.04
2023-04-11T18:37:51.180Z,26.03
2023-04-11T18:40:18.394Z,26.04
2023-04-11T18:42:47.978Z,26.05
2023-04-11T18:45:17.600Z,26.06
2023-04-11T18:47:47.786Z,26.01
2023-04-11T18:50:15.444Z,26.03
2023-04-11T18:52:43.535Z,25.95
2023-04-11T18:55:11.249Z,25.84
2023-04-11T18:57:38.620Z,25.84
2023-04-11T19:00:13.330Z,25.83
2023-04-11T19:02:41.532Z,25.81
2023-04-11T19:05:13.710Z,25.82
2023-04-11T19:07:43.849Z,25.96
2023-04-11T19:10:11.228Z,25.71
2023-04-11T19:12:37.853Z,25.64
2023-04-11T19:15:08.968Z,25.81
2023-04-11T19:17:36.480Z,25.58
2023-04-11T19:20:06.807Z,25.54
2023-04-11T19:22:34.163Z,25.58
2023-04-11T19:25:00.714Z,25.58
2023-04-11T19:27:27.203Z,25.61
2023-04-11T19:29:53.713Z,25.56
2023-04-11T19:32:20.462Z,25.56
2023-04-11T19:34:47.752Z,25.52
2023-04-11T19:37:16.385Z,25.44
2023-04-11T19:39:42.860Z,25.40
2023-04-11T19:42:10.247Z,25.37
2023-04-11T19:44:37.612Z,25.36
2023-04-11T19:47:07.269Z,25.53
2023-04-11T19:49:33.790Z,25.42
2023-04-11T19:52:00.307Z,25.42
2023-04-11T19:54:26.767Z,25.35
2023-04-11T19:56:53.418Z,25.34
2023-04-11T19:59:19.959Z,25.35
2023-04-11T20:01:46.637Z,25.28
2023-04-11T20:04:13.855Z,25.37
2023-04-11T20:06:43.881Z,25.29
2023-04-11T20:09:10.730Z,25.26
2023-04-11T20:11:37.645Z,25.25
2023-04-11T20:14:04.197Z,25.22
2023-04-11T20:16:32.072Z,25.23
2023-04-11T20:18:58.689Z,25.17
2023-04-11T20:21:25.727Z,25.17
2023-04-11T20:23:52.240Z,25.19
2023-04-11T20:26:18.751Z,25.12
2023-04-11T20:28:45.252Z,25.10
2023-04-11T20:31:11.842Z,25.09
2023-04-11T20:33:38.394Z,25.07
2023-04-11T20:36:05.133Z,25.05
2023-04-11T20:38:31.687Z,25.06
2023-04-11T20:40:58.211Z,25.06
2023-04-11T20:43:26.480Z,24.99
2023-04-11T20:45:53.234Z,24.99
2023-04-11T20:48:19.932Z,24.95
2023-04-11T20:50:47.180Z,24.89
2023-04-11T20:53:14.488Z,24.86
2023-04-11T20:55:41.268Z,24.77
2023-04-11T20:58:08.927Z,24.81
2023-04-11T21:00:35.904Z,24.69
2023-04-11T21:03:02.706Z,24.71
2023-04-11T21:05:29.622Z,24.69
2023-04-11T21:07:58.212Z,24.66
2023-04-11T21:10:24.769Z,24.57
2023-04-11T21:12:51.754Z,24.58
2023-04-11T21:15:19.825Z,24.56
2023-04-11T21:17:46.414Z,24.55
2023-04-11T21:20:20.064Z,24.59
2023-04-11T21:22:47.596Z,24.62
2023-04-11T21:25:14.265Z,24.52
2023-04-11T21:27:41.313Z,24.52
2023-04-11T21:30:09.196Z,24.51
2023-04-11T21:32:35.847Z,24.50
2023-04-11T21:35:05.833Z,24.63
2023-04-11T21:37:32.355Z,24.47
2023-04-11T21:39:58.945Z,24.38
2023-04-11T21:42:25.445Z,24.33
2023-04-11T21:44:51.953Z,24.21
2023-04-11T21:47:18.632Z,24.16
2023-04-11T21:49:46.625Z,24.15
2023-04-11T21:52:13.159Z,23.99
2023-04-11T21:54:39.691Z,24.02
2023-04-11T21:57:06.232Z,23.93
2023-04-11T21:59:34.523Z,23.90
2023-04-11T22:02:01.980Z,23.68
2023-04-11T22:04:29.271Z,23.65
2023-04-11T22:06:58.419Z,23.72
2023-04-11T22:09:24.981Z,23.79
2023-04-11T22:11:51.691Z,23.80
2023-04-11T22:14:18.215Z,23.77
2023-04-11T22:16:50.989Z,23.68
2023-04-11T22:19:18.152Z,23.65
2023-04-11T22:21:48.892Z,23.59
2023-04-11T22:24:15.394Z,23.64
2023-04-11T22:26:42.757Z,23.47
2023-04-11T22:29:09.381Z,23.60
2023-04-11T22:31:38.602Z,23.63
2023-04-11T22:34:08.126Z,23.69
2023-04-11T22:36:37.464Z,23.63
2023-04-11T22:39:07.308Z,23.71
2023-04-11T22:41:34.387Z,23.51
2023-04-11T22:44:01.389Z,23.49
2023-04-11T22:46:33.789Z,23.64
2023-04-11T22:49:00.322Z,23.44
2023-04-11T22:51:30.044Z,23.41
2023-04-11T22:53:57.117Z,23.34
2023-04-11T22:56:23.843Z,23.31
2023-04-11T22:58:50.334Z,23.27
2023-04-11T23:01:17.672Z,23.22
2023-04-11T23:03:44.270Z,23.27
2023-04-11T23:06:11.041Z,23.28
2023-04-11T23:08:37.630Z,23.26
2023-04-11T23:11:04.189Z,23.25
2023-04-11T23:13:30.799Z,23.24
2023-04-11T23:16:00.029Z,23.46
2023-04-11T23:18:26.569Z,23.31
2023-04-11T23:20:53.188Z,23.30
2023-04-11T23:23:19.985Z,23.33
2023-04-11T23:25:46.506Z,23.27
2023-04-11T23:28:13.040Z,23.26
2023-04-11T23:30:40.315Z,23.21
2023-04-11T23:33:08.728Z,23.17
2023-04-11T23:35:35.939Z,23.12
2023-04-11T23:38:02.943Z,23.05
2023-04-11T23:40:29.966Z,23.05
2023-04-11T23:42:57.897Z,22.99
2023-04-11T23:45:24.626Z,22.95
2023-04-11T23:47:51.800Z,22.85
2023-04-11T23:50:18.453Z,22.84
2023-04-11T23:52:45.144Z,22.80
2023-04-11T23:55:12.616Z,22.89
2023-04-11T23:57:39.288Z,22.85
